HTZA/ZNZ METAR and TAF weather

Enter ICAO airport designator
Station Type Date Time Source
HTZA METAR 2021/07/29 02:00 UTC NOAA

HTZA 290200Z 00000KT 9999 SCT014 24/21 Q1017 NOSIG


Station Type Date Time Source
HTZA Decoded METAR 2021/07/29 02:00 UTC NOAA

Zanzibar / Kisauni, Tanzania (HTZA) 06-13S 039-13E 15M
Jul 28, 2021 - 10:00 PM EDT / 2021.07.29 0200 UTC
Wind: Calm:0
Visibility: greater than 7 mile(s):0
Sky conditions: partly cloudy
Temperature: 75 F (24 C)
Dew Point: 69 F (21 C)
Relative Humidity: 83%
Pressure (altimeter): 30.03 in. Hg (1017 hPa)
ob: HTZA 290200Z 00000KT 9999 SCT014 24/21 Q1017 NOSIG
cycle: 2

Station Type Date Time Source
HTZA TAF 2021/07/28 18:51 UTC NOAA

HTZA 281700Z 2818/2918 12010KT 9999 FEW014
BECMG 2903/2905 20010KT BKN015
BECMG 2910/2912 14015KT FEW020

Example: see airport list